Aeroporto :
LOGIN :

Iscrizione | Disclaimer

   EN    FR    IT 

 










Sommario :    VFR   VFR Marginale   IFR   IFR Intensivo   IFR Molto Intensivo
Visibilità : 
Base nubi : 
>= 8 km
>= 3000ft
5 / 8 km
1000 / 3000 ft
1500m / 5 km
500 / 1000 ft
800 / 1500m
200 / 500 ft
< 800m
< 200 ft
Simboli :   Temporali  Nebbia  Neve Forte  Precipitazioni Forti  Vento > 20 kt
SIGMETs :   Varie  Temporali  Ghiacco  Turbolenza  Onda orograficha  Ceneri Vulcaniche







- Altitudine del aeroporto : 34 ft
- Codice IATA : BLK
- Carte del aeroporto


EGNH - Blackpool

ULTIMO METAR :
  • 181350Z 24009KT 9999 FEW008 SCT025 08/07 Q1019

METARs OBSOLETI :
  • 181320Z 24010KT 9999 FEW009 SCT025 08/07 Q1019
  • 181250Z 25009KT 9999 FEW008 SCT023 07/06 Q1019
  • 181220Z 24009KT 9999 SCT012 BKN028 07/06 Q1019
  • 181150Z 25011KT 9999 SCT016 BKN020 07/06 Q1019
  • 181120Z 21007KT 9999 SCT018 BKN022 07/06 Q1019
  • 181050Z 24006KT 9999 -SHRA FEW011 BKN020 07/05 Q1019

TAF TAF EGNH
Valido dal 18 a 12 ore il 18 a 21 ore UTC


181107Z 1812/1821 26009KT 9999 FEW010 SCT030
TEMPO 1812/1821 6000 -RA FEW004 BKN010
PROB30
TEMPO 1815/1821 4500 RADZ BKN004
ATIS : +44 1253 343 434 (x8315)
Nessun NOTAM noto per questo aeroporto.



MetMap, La meteo Aeronautica in un colpo d'occhio ! - Copyright ORBIFLY Dicembre 2007 - Disclaimer

ORBIFLY MET'MAP TEAM :

Programmazione e sviluppo : Alexandra Zaïnal
Concezione e sviluppo : Baudouin d'Aumeries
Co-Programmazione e sviluppo : Marc-Olivier Méhu
Supporto tecnico e logistico : Manuel Goepfert
Aiuto per la traduzione : Arnaldo La Scala

Contatto : metmap@orbifly.com




FONTI E CREDITI :

   NOAA